Valle de Tierras Nuevas, Puerto Rico
Current Conditions -  °F | °C
As of 11:56 PM on Thursday 20 Nov 2014 (Local Time) from TJSJ Reporting Station
Light Rain Light Rain  
Wind Chill: 79°   Ceiling: Unl
Heat Index: 82°   Visibility: 10mi
Dew Point: 72°   Wind: 0mph
Humidity: 79%   Direction: NA
Pressure: 30.02"   Gusts: NA
Location:  18.4259°N, 66.4717°W
Report Text: TJSJ 210356Z 00000KT 10SM -RA FEW028 SCT035 SCT043 26/22 A3002 RMK AO2 RAB56 SLP164 P0000 T02610222 403060244
Loading
Personal Weather Stations






























Interactive Weather Map New forecast layout! Learn more

10-Day Weather Forecast

Advertisements
Track Severe Weather on mobile